Time;durP1;ratioP1;P1;durP2;ratioP2;P2;SDS_P1;SDS_P2;PMS_P1;PMS_P2;Temp;Humidity;BMP_temperature;BMP_pressure;BME280_temperature;BME280_humidity;BME280_pressure;Samples;Min_cycle;Max_cycle;Signal;HPM_P1;HPM_P2
2022/05/20 00:00:28;;;;;;;;;;;17.30;94.50;;;;;;5076686;28;19908;-76
2022/05/20 00:02:54;;;;;;;;;;;17.40;94.60;;;;;;5076538;28;19919;-75
2022/05/20 00:05:20;;;;;;;;;;;17.40;94.60;;;;;;5076452;28;19912;-77
2022/05/20 00:07:45;;;;;;;;;;;17.40;94.80;;;;;;5076344;28;19916;-76
2022/05/20 00:10:12;;;;;;;;;;;17.40;94.50;;;;;;5076680;28;19909;-76
2022/05/20 00:12:38;;;;;;;;;;;17.10;95.80;;;;;;5076333;28;19931;-77
2022/05/20 00:15:08;;;;;;;;;;;17.00;95.80;;;;;;5091804;28;20014;-77
2022/05/20 00:17:34;;;;;;;;;;;17.20;95.40;;;;;;5076241;28;20375;-75
2022/05/20 00:20:00;;;;;;;;;;;17.20;95.50;;;;;;5076570;28;20003;-75
2022/05/20 00:22:25;;;;;;;;;;;17.30;95.10;;;;;;5076068;28;19916;-75
2022/05/20 00:27:35;;;;;;;;;;;17.00;95.90;;;;;;5076018;28;19956;-75
2022/05/20 00:30:00;;;;;;;;;;;17.10;96.40;;;;;;5076273;28;19909;-76
2022/05/20 00:32:26;;;;;;;;;;;17.20;96.70;;;;;;5076105;28;19909;-75
2022/05/20 00:34:52;;;;;;;;;;;17.00;97.50;;;;;;5076010;28;20318;-74
2022/05/20 00:37:17;;;;;;;;;;;17.00;98.10;;;;;;5075529;28;19928;-76
2022/05/20 00:39:43;;;;;;;;;;;17.00;98.40;;;;;;5075804;28;19995;-76
2022/05/20 00:42:10;;;;;;;;;;;16.80;99.70;;;;;;5075992;28;19912;-76
2022/05/20 00:44:35;;;;;;;;;;;16.70;99.90;;;;;;5075779;28;19908;-76
2022/05/20 00:47:01;;;;;;;;;;;16.50;99.90;;;;;;5075703;28;19977;-77
2022/05/20 00:49:28;;;;;;;;;;;16.30;99.90;;;;;;5057722;28;19916;-77
2022/05/20 00:51:54;;;;;;;;;;;16.50;99.90;;;;;;5075935;28;19912;-75
2022/05/20 00:54:27;;;;;;;;;;;16.80;99.90;;;;;;5075545;28;19999;-74
2022/05/20 00:56:59;;;;;;;;;;;16.90;99.90;;;;;;5075490;28;20094;-77
2022/05/20 00:59:26;;;;;;;;;;;16.90;99.90;;;;;;5075717;28;19916;-75
2022/05/20 01:01:54;;;;;;;;;;;16.90;99.90;;;;;;5075366;28;20391;-76
2022/05/20 01:04:20;;;;;;;;;;;16.90;99.90;;;;;;5057427;28;19908;-75
2022/05/20 01:06:46;;;;;;;;;;;17.00;99.90;;;;;;5057335;28;19912;-75
2022/05/20 01:09:11;;;;;;;;;;;16.90;99.90;;;;;;5075481;28;19909;-75
2022/05/20 01:11:38;;;;;;;;;;;16.90;99.90;;;;;;5075164;28;20360;-75
2022/05/20 01:14:04;;;;;;;;;;;16.90;99.90;;;;;;5075262;28;19908;-75
2022/05/20 01:16:31;;;;;;;;;;;16.90;99.90;;;;;;5075293;28;20345;-75
2022/05/20 01:18:57;;;;;;;;;;;16.80;99.90;;;;;;5057092;28;19908;-76
2022/05/20 01:21:22;;;;;;;;;;;16.60;99.90;;;;;;5075027;28;20260;-75
2022/05/20 01:23:48;;;;;;;;;;;16.60;99.90;;;;;;5056957;28;19913;-76
2022/05/20 01:26:14;;;;;;;;;;;16.40;99.90;;;;;;5075231;28;20367;-76
2022/05/20 01:28:39;;;;;;;;;;;16.40;99.90;;;;;;5074891;28;19948;-77
2022/05/20 01:31:06;;;;;;;;;;;16.50;99.90;;;;;;5074845;28;19908;-76
2022/05/20 01:33:42;;;;;;;;;;;16.50;99.90;;;;;;5074798;28;20372;-74
2022/05/20 01:36:11;;;;;;;;;;;16.60;99.90;;;;;;5074522;28;20380;-75
2022/05/20 01:38:37;;;;;;;;;;;16.50;99.90;;;;;;5074666;28;20284;-77
2022/05/20 01:41:04;;;;;;;;;;;16.40;99.90;;;;;;5074713;28;19919;-76
2022/05/20 01:43:53;;;;;;;;;;;16.40;99.90;;;;;;5074999;28;20007;-75
2022/05/20 01:46:24;;;;;;;;;;;16.40;99.90;;;;;;5074556;28;19909;-76
2022/05/20 01:48:52;;;;;;;;;;;16.30;99.90;;;;;;5074593;28;20006;-75
2022/05/20 01:51:19;;;;;;;;;;;16.40;99.90;;;;;;5074408;28;19908;-74
2022/05/20 01:53:49;;;;;;;;;;;16.40;99.90;;;;;;5074565;28;19908;-75
2022/05/20 01:56:19;;;;;;;;;;;16.40;99.90;;;;;;5074462;28;19909;-77
2022/05/20 01:58:59;;;;;;;;;;;16.30;99.90;;;;;;5074364;28;20395;-77
2022/05/20 02:01:31;;;;;;;;;;;16.50;99.90;;;;;;5056010;28;20003;-76
2022/05/20 02:03:59;;;;;;;;;;;16.60;99.90;;;;;;5074493;28;19920;-74
2022/05/20 02:06:27;;;;;;;;;;;16.70;99.90;;;;;;5074158;28;20299;-77
2022/05/20 02:08:53;;;;;;;;;;;16.50;99.90;;;;;;5074111;28;19972;-76
2022/05/20 02:11:18;;;;;;;;;;;16.50;99.90;;;;;;5073321;28;20006;-76
2022/05/20 02:13:56;;;;;;;;;;;16.60;99.90;;;;;;5074043;28;19916;-77
2022/05/20 02:16:26;;;;;;;;;;;16.60;99.90;;;;;;5074187;28;19912;-75
2022/05/20 02:18:53;;;;;;;;;;;16.50;99.90;;;;;;5074114;28;20338;-77
2022/05/20 02:21:21;;;;;;;;;;;16.50;99.90;;;;;;5073985;28;19962;-76
2022/05/20 02:23:49;;;;;;;;;;;16.60;99.90;;;;;;5055917;28;20384;-75
2022/05/20 02:26:17;;;;;;;;;;;16.60;99.90;;;;;;5055917;28;19943;-78
2022/05/20 02:28:44;;;;;;;;;;;16.60;99.90;;;;;;5073837;28;19974;-76
2022/05/20 02:31:12;;;;;;;;;;;16.80;99.90;;;;;;5055847;28;19912;-76
2022/05/20 02:33:38;;;;;;;;;;;16.80;99.90;;;;;;5074048;28;20391;-75
2022/05/20 02:36:04;;;;;;;;;;;16.80;99.90;;;;;;5073632;28;19928;-77
2022/05/20 02:38:30;;;;;;;;;;;16.90;99.90;;;;;;5073751;28;19931;-75
2022/05/20 02:40:56;;;;;;;;;;;16.90;99.90;;;;;;5073685;28;19998;-75
2022/05/20 02:43:21;;;;;;;;;;;16.70;99.90;;;;;;5073588;28;20399;-77
2022/05/20 02:45:48;;;;;;;;;;;16.70;99.90;;;;;;5073906;28;19916;-75
2022/05/20 02:48:14;;;;;;;;;;;16.70;99.90;;;;;;5073587;28;19916;-76
2022/05/20 02:50:40;;;;;;;;;;;16.80;99.90;;;;;;5074066;28;19909;-75
2022/05/20 02:53:05;;;;;;;;;;;16.90;99.90;;;;;;5073701;28;20456;-76
2022/05/20 02:55:31;;;;;;;;;;;17.00;99.90;;;;;;5073540;28;19909;-75
2022/05/20 02:57:56;;;;;;;;;;;16.80;99.90;;;;;;5073538;28;19983;-77
2022/05/20 03:05:51;;;;;;;;;;;16.80;99.90;;;;;;5073523;28;20453;-74
2022/05/20 03:08:17;;;;;;;;;;;16.50;99.90;;;;;;5055456;28;20375;-76
2022/05/20 03:10:43;;;;;;;;;;;16.70;99.90;;;;;;5073338;28;19936;-76
2022/05/20 03:13:09;;;;;;;;;;;16.80;99.90;;;;;;5055353;28;20029;-77
2022/05/20 03:15:39;;;;;;;;;;;16.90;99.90;;;;;;5073563;28;19908;-75
2022/05/20 03:18:05;;;;;;;;;;;16.90;99.90;;;;;;5073523;28;19909;-76
2022/05/20 03:20:31;;;;;;;;;;;17.00;99.90;;;;;;5073453;28;19999;-75
2022/05/20 03:22:57;;;;;;;;;;;16.90;99.90;;;;;;5076816;28;19919;-76
2022/05/20 03:25:23;;;;;;;;;;;16.80;99.90;;;;;;5077491;28;19909;-77
2022/05/20 03:27:49;;;;;;;;;;;16.80;99.90;;;;;;5077248;28;19915;-77
2022/05/20 03:30:15;;;;;;;;;;;16.90;99.90;;;;;;5077290;28;19930;-76
2022/05/20 03:32:40;;;;;;;;;;;17.00;99.90;;;;;;5077092;28;19912;-76
2022/05/20 03:35:06;;;;;;;;;;;17.10;99.90;;;;;;5077052;28;19908;-77
2022/05/20 03:37:32;;;;;;;;;;;17.00;99.90;;;;;;5076856;28;19920;-75
2022/05/20 03:39:58;;;;;;;;;;;17.10;99.90;;;;;;5077094;28;20318;-76
2022/05/20 03:42:24;;;;;;;;;;;17.10;99.90;;;;;;5058835;28;20340;-75
2022/05/20 03:44:50;;;;;;;;;;;17.10;99.90;;;;;;5076931;28;20005;-75
2022/05/20 03:47:16;;;;;;;;;;;17.10;99.90;;;;;;5076787;28;20038;-76
2022/05/20 03:49:42;;;;;;;;;;;16.90;99.90;;;;;;5077194;28;19908;-76
2022/05/20 03:52:09;;;;;;;;;;;16.80;99.90;;;;;;5076749;28;19956;-76
2022/05/20 03:54:34;;;;;;;;;;;16.90;99.90;;;;;;5076778;28;19908;-77
2022/05/20 03:57:02;;;;;;;;;;;16.90;99.90;;;;;;5076723;28;19962;-77
2022/05/20 03:59:28;;;;;;;;;;;16.80;99.90;;;;;;5077109;28;19942;-77
2022/05/20 04:01:56;;;;;;;;;;;16.70;99.90;;;;;;5076476;28;19991;-75
2022/05/20 04:04:31;;;;;;;;;;;16.80;99.90;;;;;;5076744;28;19912;-75
2022/05/20 04:06:58;;;;;;;;;;;16.80;99.90;;;;;;5058529;28;19948;-75
2022/05/20 04:09:23;;;;;;;;;;;16.60;99.90;;;;;;5076526;28;19958;-77
2022/05/20 04:11:52;;;;;;;;;;;16.80;99.90;;;;;;5076322;28;19909;-75
2022/05/20 04:14:17;;;;;;;;;;;16.60;99.90;;;;;;5076480;28;19962;-77
2022/05/20 04:16:43;;;;;;;;;;;16.80;99.90;;;;;;5058264;28;20315;-76
2022/05/20 04:19:08;;;;;;;;;;;16.80;99.90;;;;;;5076265;28;20425;-75
2022/05/20 04:21:34;;;;;;;;;;;16.80;99.90;;;;;;5076319;28;19916;-75
2022/05/20 04:24:00;;;;;;;;;;;16.70;99.90;;;;;;5076080;28;20020;-77
2022/05/20 04:26:26;;;;;;;;;;;16.80;99.90;;;;;;5076216;28;19915;-75
2022/05/20 04:28:52;;;;;;;;;;;17.00;99.90;;;;;;5058404;28;19909;-77
2022/05/20 04:31:17;;;;;;;;;;;16.80;99.90;;;;;;5076031;28;19908;-74
2022/05/20 04:33:43;;;;;;;;;;;16.50;99.90;;;;;;5075207;28;19909;-75
2022/05/20 04:36:08;;;;;;;;;;;16.60;99.90;;;;;;5075750;28;19927;-76
2022/05/20 04:38:34;;;;;;;;;;;16.80;99.90;;;;;;5076091;28;20383;-76
2022/05/20 04:49:12;;;;;;;;;;;17.00;99.90;;;;;;5075572;28;19915;-77
2022/05/20 04:51:38;;;;;;;;;;;17.10;99.90;;;;;;5075696;28;20272;-76
2022/05/20 04:56:49;;;;;;;;;;;17.20;99.90;;;;;;5075779;28;20038;-74
2022/05/20 04:59:15;;;;;;;;;;;17.30;99.90;;;;;;5075653;28;19909;-77
2022/05/20 05:01:44;;;;;;;;;;;17.30;99.90;;;;;;5075442;28;19912;-76
2022/05/20 05:04:09;;;;;;;;;;;17.30;99.90;;;;;;5075284;28;19923;-76
2022/05/20 05:06:35;;;;;;;;;;;17.30;99.90;;;;;;5075520;28;20287;-75
2022/05/20 05:09:01;;;;;;;;;;;17.20;99.90;;;;;;5075289;28;19909;-76
2022/05/20 05:11:26;;;;;;;;;;;17.10;99.90;;;;;;5075204;28;19908;-76
2022/05/20 05:13:52;;;;;;;;;;;17.20;99.90;;;;;;5075573;28;19935;-74
2022/05/20 05:16:17;;;;;;;;;;;17.20;99.90;;;;;;5075173;28;19956;-75
2022/05/20 05:18:43;;;;;;;;;;;17.30;99.90;;;;;;5075223;28;19908;-74
2022/05/20 05:21:13;;;;;;;;;;;17.30;99.90;;;;;;5075090;28;20015;-75
2022/05/20 05:23:38;;;;;;;;;;;17.30;99.90;;;;;;5090543;28;19935;-75
2022/05/20 05:26:04;;;;;;;;;;;17.30;99.90;;;;;;5075116;28;20343;-74
2022/05/20 05:28:30;;;;;;;;;;;17.20;99.90;;;;;;5056931;28;19912;-77
2022/05/20 05:30:55;;;;;;;;;;;17.50;99.90;;;;;;5074919;28;19967;-75
2022/05/20 05:33:21;;;;;;;;;;;17.50;99.90;;;;;;5074769;28;19909;-77
2022/05/20 05:35:47;;;;;;;;;;;17.60;99.90;;;;;;5074429;28;19916;-76
2022/05/20 05:38:13;;;;;;;;;;;17.60;99.90;;;;;;5074923;28;20387;-76
2022/05/20 05:40:39;;;;;;;;;;;17.50;99.90;;;;;;5074892;28;19958;-76
2022/05/20 05:43:04;;;;;;;;;;;17.40;99.90;;;;;;5074593;28;20280;-75
2022/05/20 05:45:31;;;;;;;;;;;17.60;99.90;;;;;;5074481;28;19966;-75
2022/05/20 05:47:58;;;;;;;;;;;17.60;99.90;;;;;;5056445;28;19909;-76
2022/05/20 05:50:24;;;;;;;;;;;17.70;99.90;;;;;;5074459;28;19915;-74
2022/05/20 05:53:00;;;;;;;;;;;17.70;99.90;;;;;;5074173;28;20276;-75
2022/05/20 05:55:26;;;;;;;;;;;18.00;99.90;;;;;;5074221;28;19909;-76
2022/05/20 05:57:52;;;;;;;;;;;17.80;99.90;;;;;;5074176;28;19958;-75
2022/05/20 06:00:18;;;;;;;;;;;17.60;99.90;;;;;;5056202;28;19952;-75
2022/05/20 06:02:43;;;;;;;;;;;17.70;99.90;;;;;;5074131;28;20011;-75
2022/05/20 06:05:09;;;;;;;;;;;17.70;99.90;;;;;;5074247;28;19919;-76
2022/05/20 06:07:34;;;;;;;;;;;17.80;99.90;;;;;;5074316;28;19938;-75
2022/05/20 06:10:00;;;;;;;;;;;17.70;99.90;;;;;;5074119;28;19912;-75
2022/05/20 06:12:25;;;;;;;;;;;17.70;99.90;;;;;;5074007;28;19913;-76
2022/05/20 06:14:51;;;;;;;;;;;17.70;99.90;;;;;;5074262;28;19909;-75
2022/05/20 06:17:17;;;;;;;;;;;17.90;99.90;;;;;;5074027;28;19908;-77
2022/05/20 06:19:43;;;;;;;;;;;17.90;99.90;;;;;;5074195;28;19909;-77
2022/05/20 06:22:08;;;;;;;;;;;17.80;99.90;;;;;;5055932;28;19909;-76
2022/05/20 06:24:34;;;;;;;;;;;17.90;99.90;;;;;;5073902;28;19915;-76
2022/05/20 06:27:00;;;;;;;;;;;18.00;99.90;;;;;;5074085;28;19908;-76
2022/05/20 06:29:25;;;;;;;;;;;18.10;99.90;;;;;;5074286;28;19908;-75
2022/05/20 06:31:51;;;;;;;;;;;18.50;99.90;;;;;;5073837;28;19915;-76
2022/05/20 06:34:17;;;;;;;;;;;18.60;99.90;;;;;;5073705;28;19908;-75
2022/05/20 06:42:10;;;;;;;;;;;19.50;99.90;;;;;;5073482;28;19921;-75
2022/05/20 06:44:36;;;;;;;;;;;19.80;99.90;;;;;;5073706;28;19908;-76
2022/05/20 06:47:02;;;;;;;;;;;20.00;99.90;;;;;;5074056;28;19976;-76
2022/05/20 06:49:27;;;;;;;;;;;20.10;99.90;;;;;;5073967;28;20315;-76
2022/05/20 06:51:55;;;;;;;;;;;20.20;99.90;;;;;;5073680;28;19908;-77
2022/05/20 06:54:21;;;;;;;;;;;20.30;99.90;;;;;;5073549;28;19912;-77
2022/05/20 06:56:46;;;;;;;;;;;20.40;99.90;;;;;;5073188;28;19991;-75
2022/05/20 06:59:14;;;;;;;;;;;20.50;99.90;;;;;;5073344;28;19909;-75
2022/05/20 07:01:40;;;;;;;;;;;20.60;99.90;;;;;;5073518;28;19908;-75
2022/05/20 07:04:06;;;;;;;;;;;20.20;99.90;;;;;;5073449;28;19919;-77
2022/05/20 07:06:34;;;;;;;;;;;19.80;99.90;;;;;;5073484;28;19909;-75
2022/05/20 07:09:00;;;;;;;;;;;19.80;99.90;;;;;;5073881;28;20380;-77
2022/05/20 07:11:26;;;;;;;;;;;19.80;99.90;;;;;;5073583;28;20324;-77
2022/05/20 07:13:55;;;;;;;;;;;19.90;99.90;;;;;;5073442;28;19934;-75
2022/05/20 07:16:26;;;;;;;;;;;20.00;99.90;;;;;;5073368;28;19999;-75
2022/05/20 07:18:52;;;;;;;;;;;20.40;99.90;;;;;;5073486;28;19909;-77
2022/05/20 07:21:18;;;;;;;;;;;20.80;99.90;;;;;;5072920;28;20324;-76
2022/05/20 07:23:43;;;;;;;;;;;20.90;99.90;;;;;;5073203;28;20330;-77
2022/05/20 07:26:09;;;;;;;;;;;20.60;99.90;;;;;;5073482;28;19912;-75
2022/05/20 07:28:35;;;;;;;;;;;20.70;99.90;;;;;;5073310;28;20291;-75
2022/05/20 07:31:00;;;;;;;;;;;20.60;99.90;;;;;;5073475;28;19912;-76
2022/05/20 07:33:26;;;;;;;;;;;20.20;99.90;;;;;;5073233;28;19915;-75
2022/05/20 07:35:52;;;;;;;;;;;19.90;99.90;;;;;;5054925;28;20295;-77
2022/05/20 07:38:17;;;;;;;;;;;19.80;99.90;;;;;;5073474;28;19908;-76
2022/05/20 07:40:43;;;;;;;;;;;19.50;99.90;;;;;;5073138;28;19909;-77
2022/05/20 07:43:09;;;;;;;;;;;19.20;99.90;;;;;;5073040;28;19912;-75
2022/05/20 07:45:35;;;;;;;;;;;19.00;99.90;;;;;;5073434;28;19908;-75
2022/05/20 07:48:00;;;;;;;;;;;19.00;99.90;;;;;;5055030;28;19919;-76
2022/05/20 07:50:26;;;;;;;;;;;19.00;99.90;;;;;;5073104;28;19909;-77
2022/05/20 07:55:38;;;;;;;;;;;19.30;99.90;;;;;;5072793;28;19994;-77
2022/05/20 07:58:06;;;;;;;;;;;19.20;99.90;;;;;;5054958;28;20360;-77
2022/05/20 08:00:33;;;;;;;;;;;18.80;99.90;;;;;;5072974;28;20360;-76
2022/05/20 08:03:00;;;;;;;;;;;18.60;99.90;;;;;;5072881;28;19912;-77
2022/05/20 08:05:26;;;;;;;;;;;18.30;99.90;;;;;;5072914;28;19947;-77
2022/05/20 08:07:55;;;;;;;;;;;18.30;99.90;;;;;;5055007;28;20368;-76
2022/05/20 08:10:21;;;;;;;;;;;18.20;99.90;;;;;;5076736;28;19917;-75
2022/05/20 08:12:47;;;;;;;;;;;18.20;99.90;;;;;;5076284;28;19961;-76
2022/05/20 08:15:14;;;;;;;;;;;18.10;99.90;;;;;;5076487;28;19917;-75
2022/05/20 08:17:40;;;;;;;;;;;17.90;99.90;;;;;;5076455;28;19918;-77
2022/05/20 08:20:09;;;;;;;;;;;18.00;99.90;;;;;;5058244;28;19999;-76
2022/05/20 08:22:35;;;;;;;;;;;17.80;99.90;;;;;;5076135;28;19935;-76
2022/05/20 08:25:01;;;;;;;;;;;17.90;99.90;;;;;;5076328;28;19913;-76
2022/05/20 08:27:27;;;;;;;;;;;18.00;99.90;;;;;;5058142;28;19915;-78
2022/05/20 08:29:53;;;;;;;;;;;17.90;99.90;;;;;;5076054;28;19908;-75
2022/05/20 08:32:19;;;;;;;;;;;18.10;99.90;;;;;;5076035;28;19935;-76
2022/05/20 08:34:46;;;;;;;;;;;18.20;99.90;;;;;;5076256;28;19912;-74
2022/05/20 08:37:12;;;;;;;;;;;18.30;99.90;;;;;;5075824;28;20430;-76
2022/05/20 08:39:38;;;;;;;;;;;18.50;99.90;;;;;;5076248;28;20275;-75
2022/05/20 08:42:05;;;;;;;;;;;18.70;99.90;;;;;;5075855;28;20002;-77
2022/05/20 08:44:31;;;;;;;;;;;18.80;99.90;;;;;;5075976;28;20129;-75
2022/05/20 08:47:12;;;;;;;;;;;19.00;99.90;;;;;;5075746;28;19951;-75
2022/05/20 08:49:38;;;;;;;;;;;19.30;99.90;;;;;;5057608;28;19909;-75
2022/05/20 08:52:04;;;;;;;;;;;19.10;99.90;;;;;;5075706;28;19908;-75
2022/05/20 08:54:30;;;;;;;;;;;19.30;99.90;;;;;;5076227;28;19908;-77
2022/05/20 08:56:55;;;;;;;;;;;19.70;99.90;;;;;;5075555;28;19931;-78
2022/05/20 08:59:21;;;;;;;;;;;20.10;99.90;;;;;;5075322;28;19948;-76
2022/05/20 09:01:50;;;;;;;;;;;21.20;99.90;;;;;;5057482;28;19915;-76
2022/05/20 09:04:17;;;;;;;;;;;21.60;99.90;;;;;;5075554;28;20386;-76
2022/05/20 09:07:02;;;;;;;;;;;21.40;99.90;;;;;;5075441;28;19916;-77
2022/05/20 09:09:54;;;;;;;;;;;21.30;99.90;;;;;;5057347;28;19909;-76
2022/05/20 09:12:24;;;;;;;;;;;21.70;99.90;;;;;;5070896;28;20351;-76
2022/05/20 09:17:44;;;;;;;;;;;23.50;99.90;;;;;;5044022;28;19909;-75
2022/05/20 09:20:14;;;;;;;;;;;24.40;94.00;;;;;;5074613;28;19920;-76
2022/05/20 09:22:40;;;;;;;;;;;23.80;94.70;;;;;;5075648;28;19913;-75
2022/05/20 09:25:12;;;;;;;;;;;24.20;93.70;;;;;;5075017;28;19915;-76
2022/05/20 09:27:39;;;;;;;;;;;24.70;92.00;;;;;;5075024;28;20046;-76
2022/05/20 09:30:10;;;;;;;;;;;24.90;90.90;;;;;;5075040;28;19978;-78
2022/05/20 09:32:40;;;;;;;;;;;24.50;91.30;;;;;;5074896;28;19908;-77
2022/05/20 09:35:18;;;;;;;;;;;23.60;92.50;;;;;;5075209;28;20283;-79
2022/05/20 09:37:44;;;;;;;;;;;23.20;93.00;;;;;;5056556;28;19921;-75
2022/05/20 09:40:16;;;;;;;;;;;22.50;94.90;;;;;;5074728;28;19920;-74
2022/05/20 09:42:55;;;;;;;;;;;23.30;94.30;;;;;;5074655;28;19916;-77
2022/05/20 09:45:21;;;;;;;;;;;24.00;92.60;;;;;;5074920;28;19912;-77
2022/05/20 09:47:52;;;;;;;;;;;24.10;91.00;;;;;;5074688;28;19916;-77
2022/05/20 09:50:28;;;;;;;;;;;24.50;87.10;;;;;;5074506;28;20391;-77
2022/05/20 09:53:01;;;;;;;;;;;25.00;84.40;;;;;;5074686;28;19915;-77
2022/05/20 09:55:27;;;;;;;;;;;26.50;81.70;;;;;;5074245;28;19908;-76
2022/05/20 09:58:08;;;;;;;;;;;26.60;75.60;;;;;;5074414;28;19912;-77
2022/05/20 10:00:34;;;;;;;;;;;25.60;78.40;;;;;;5074290;28;19915;-76
2022/05/20 10:03:39;;;;;;;;;;;25.20;80.20;;;;;;5074581;28;19928;-78
2022/05/20 10:06:17;;;;;;;;;;;27.50;71.10;;;;;;5012607;28;19909;-76
2022/05/20 10:08:45;;;;;;;;;;;28.30;66.80;;;;;;5012538;28;20009;-76
2022/05/20 10:11:15;;;;;;;;;;;30.30;63.40;;;;;;5047181;28;19912;-78
2022/05/20 10:13:41;;;;;;;;;;;31.10;58.00;;;;;;5056648;28;20342;-76
2022/05/20 10:16:09;;;;;;;;;;;32.20;57.60;;;;;;5074184;28;19912;-76
2022/05/20 10:18:41;;;;;;;;;;;31.00;57.90;;;;;;5074086;28;19908;-76
2022/05/20 10:21:20;;;;;;;;;;;29.30;59.70;;;;;;5074043;28;19935;-77
2022/05/20 10:23:53;;;;;;;;;;;28.10;62.80;;;;;;5074050;28;20418;-77
2022/05/20 10:26:38;;;;;;;;;;;27.50;65.00;;;;;;5055737;28;19909;-75
2022/05/20 10:34:47;;;;;;;;;;;28.30;61.80;;;;;;5073715;28;19923;-76
2022/05/20 10:37:18;;;;;;;;;;;28.20;61.50;;;;;;5069394;28;19921;-76
2022/05/20 10:39:44;;;;;;;;;;;31.00;58.80;;;;;;5055635;28;20395;-76
2022/05/20 10:42:16;;;;;;;;;;;32.10;55.30;;;;;;5064185;28;19916;-78
2022/05/20 10:50:44;;;;;;;;;;;35.90;49.10;;;;;;5073691;28;19932;-79
2022/05/20 10:53:29;;;;;;;;;;;36.70;47.00;;;;;;5073983;28;20046;-78
2022/05/20 10:56:03;;;;;;;;;;;36.70;46.00;;;;;;5073586;28;19915;-78
2022/05/20 10:58:48;;;;;;;;;;;36.70;45.40;;;;;;5074154;28;19908;-78
2022/05/20 11:01:25;;;;;;;;;;;36.80;43.60;;;;;;5073497;28;19951;-78
2022/05/20 11:04:07;;;;;;;;;;;36.50;44.20;;;;;;5073477;28;20273;-78
2022/05/20 11:06:45;;;;;;;;;;;36.10;43.90;;;;;;5067421;28;19928;-78
2022/05/20 11:09:28;;;;;;;;;;;35.70;44.40;;;;;;5056555;28;19921;-77
2022/05/20 11:11:59;;;;;;;;;;;35.40;43.90;;;;;;5062308;28;19948;-76
2022/05/20 11:14:33;;;;;;;;;;;35.70;44.00;;;;;;5042540;28;19909;-77
2022/05/20 11:17:12;;;;;;;;;;;35.90;44.10;;;;;;5061104;28;19943;-78
2022/05/20 11:19:46;;;;;;;;;;;35.70;44.40;;;;;;5063776;28;19909;-79
2022/05/20 11:22:31;;;;;;;;;;;35.10;44.30;;;;;;5063174;28;19909;-77
2022/05/20 11:25:06;;;;;;;;;;;35.20;45.00;;;;;;5063678;28;19956;-78
2022/05/20 11:27:50;;;;;;;;;;;34.80;44.10;;;;;;5062150;28;19919;-76
2022/05/20 11:30:34;;;;;;;;;;;34.70;45.20;;;;;;5063668;28;20434;-79
2022/05/20 11:33:12;;;;;;;;;;;35.30;44.50;;;;;;5064117;28;19908;-78
2022/05/20 11:35:40;;;;;;;;;;;35.90;43.10;;;;;;5061295;28;19928;-77
2022/05/20 11:38:12;;;;;;;;;;;35.30;44.70;;;;;;5061708;28;19932;-77
2022/05/20 11:40:57;;;;;;;;;;;35.40;44.90;;;;;;5061728;28;19916;-77
2022/05/20 11:43:36;;;;;;;;;;;35.20;43.00;;;;;;5070298;28;20003;-76
2022/05/20 11:46:21;;;;;;;;;;;34.80;43.40;;;;;;5077098;28;19908;-78
2022/05/20 11:49:07;;;;;;;;;;;35.10;43.60;;;;;;5076852;28;19909;-78
2022/05/20 11:52:08;;;;;;;;;;;34.90;43.50;;;;;;5077057;28;20284;-77
2022/05/20 11:54:40;;;;;;;;;;;36.20;43.20;;;;;;5034514;28;20254;-79
2022/05/20 11:57:26;;;;;;;;;;;37.40;41.90;;;;;;5069198;28;19909;-78
2022/05/20 12:00:00;;;;;;;;;;;37.50;41.30;;;;;;5076775;28;20375;-78
2022/05/20 12:02:26;;;;;;;;;;;38.50;40.40;;;;;;5076604;28;20388;-76
2022/05/20 12:04:52;;;;;;;;;;;38.30;40.10;;;;;;5076487;28;20281;-77
2022/05/20 12:07:19;;;;;;;;;;;38.80;40.20;;;;;;5076557;28;19908;-77
2022/05/20 12:09:46;;;;;;;;;;;39.70;38.30;;;;;;5076465;28;19908;-77
2022/05/20 12:12:29;;;;;;;;;;;39.00;39.00;;;;;;5058230;28;20371;-79
2022/05/20 12:15:15;;;;;;;;;;;40.00;38.60;;;;;;5076363;28;19909;-79
2022/05/20 12:17:40;;;;;;;;;;;40.30;37.90;;;;;;5075796;28;19914;-76
2022/05/20 12:25:50;;;;;;;;;;;36.00;40.60;;;;;;5075981;28;19915;-76
2022/05/20 12:28:21;;;;;;;;;;;36.80;40.10;;;;;;5076132;28;20007;-77
2022/05/20 12:31:06;;;;;;;;;;;37.70;39.70;;;;;;5076108;28;19909;-76
2022/05/20 12:33:51;;;;;;;;;;;37.00;39.50;;;;;;5075980;28;19995;-79
2022/05/20 12:36:20;;;;;;;;;;;38.30;39.30;;;;;;5075962;28;19991;-78
2022/05/20 12:38:46;;;;;;;;;;;38.20;39.20;;;;;;5075926;28;19909;-79
2022/05/20 12:41:20;;;;;;;;;;;36.50;39.60;;;;;;5075982;28;19909;-75
2022/05/20 12:43:48;;;;;;;;;;;34.60;41.80;;;;;;5075797;28;19935;-78
2022/05/20 12:46:18;;;;;;;;;;;34.50;41.60;;;;;;5075996;28;19934;-78
2022/05/20 12:48:43;;;;;;;;;;;34.60;41.70;;;;;;5075883;28;19961;-77
2022/05/20 12:51:09;;;;;;;;;;;34.40;42.40;;;;;;5075807;28;19912;-78
2022/05/20 12:53:36;;;;;;;;;;;36.50;41.20;;;;;;5075487;28;19916;-78
2022/05/20 12:56:02;;;;;;;;;;;37.50;39.70;;;;;;5075294;28;19947;-77
2022/05/20 12:58:29;;;;;;;;;;;36.70;40.60;;;;;;5075504;28;19966;-78
2022/05/20 13:00:58;;;;;;;;;;;36.80;40.40;;;;;;5075509;28;19915;-79
2022/05/20 13:03:26;;;;;;;;;;;36.60;40.40;;;;;;5075440;28;19963;-79
2022/05/20 13:05:52;;;;;;;;;;;37.30;40.90;;;;;;5075879;28;20272;-76
2022/05/20 13:08:19;;;;;;;;;;;38.10;39.30;;;;;;5075395;28;19999;-77
2022/05/20 13:10:44;;;;;;;;;;;37.70;39.30;;;;;;5075309;28;19909;-76
2022/05/20 13:13:12;;;;;;;;;;;38.10;40.00;;;;;;5057369;28;20016;-76
2022/05/20 13:15:41;;;;;;;;;;;38.10;38.80;;;;;;5075239;28;19912;-77
2022/05/20 13:18:12;;;;;;;;;;;36.80;39.60;;;;;;5075532;28;19954;-77
2022/05/20 13:20:39;;;;;;;;;;;37.40;40.10;;;;;;5075213;28;19909;-78
2022/05/20 13:23:06;;;;;;;;;;;36.70;39.20;;;;;;5075182;28;19912;-77
2022/05/20 13:25:32;;;;;;;;;;;33.80;41.40;;;;;;5075002;28;19958;-77
2022/05/20 13:27:59;;;;;;;;;;;34.30;42.80;;;;;;5075236;28;19909;-76
2022/05/20 13:30:26;;;;;;;;;;;34.90;41.50;;;;;;5074983;28;19915;-79
2022/05/20 13:32:59;;;;;;;;;;;35.10;41.40;;;;;;5074913;28;19909;-77
2022/05/20 13:35:24;;;;;;;;;;;37.30;41.00;;;;;;5056423;28;19916;-78
2022/05/20 13:37:51;;;;;;;;;;;38.80;39.80;;;;;;5075029;28;19913;-76
2022/05/20 13:40:23;;;;;;;;;;;37.60;39.00;;;;;;5074756;28;19908;-77
2022/05/20 13:42:50;;;;;;;;;;;35.80;40.40;;;;;;5074540;28;19926;-79
2022/05/20 13:45:18;;;;;;;;;;;35.70;40.80;;;;;;5074631;28;19914;-78
2022/05/20 13:50:29;;;;;;;;;;;36.30;40.60;;;;;;5074614;28;19966;-79
2022/05/20 13:52:57;;;;;;;;;;;35.40;40.60;;;;;;5074452;28;19955;-75
2022/05/20 13:55:27;;;;;;;;;;;34.60;41.20;;;;;;5074449;28;19908;-76
2022/05/20 13:57:53;;;;;;;;;;;34.00;41.60;;;;;;5074301;28;19951;-77
2022/05/20 14:00:27;;;;;;;;;;;32.50;44.00;;;;;;5074285;28;19946;-79
2022/05/20 14:03:05;;;;;;;;;;;34.20;43.00;;;;;;5055984;28;20291;-76
2022/05/20 14:05:40;;;;;;;;;;;35.80;41.10;;;;;;5073660;28;19909;-77
2022/05/20 14:08:06;;;;;;;;;;;35.20;41.60;;;;;;5074449;28;20316;-78
2022/05/20 14:10:36;;;;;;;;;;;34.70;41.80;;;;;;5074066;28;19973;-76
2022/05/20 14:13:01;;;;;;;;;;;34.20;42.30;;;;;;5056080;28;19919;-79
2022/05/20 14:15:27;;;;;;;;;;;34.90;41.40;;;;;;5074324;28;20370;-78
2022/05/20 14:18:05;;;;;;;;;;;34.30;41.80;;;;;;5074252;28;20285;-78
2022/05/20 14:20:34;;;;;;;;;;;32.70;42.50;;;;;;5074053;28;19934;-76
2022/05/20 14:23:00;;;;;;;;;;;32.20;43.80;;;;;;5073879;28;20281;-79
2022/05/20 14:25:29;;;;;;;;;;;33.00;43.80;;;;;;5073983;28;19908;-77
2022/05/20 14:28:10;;;;;;;;;;;34.90;42.20;;;;;;5074169;28;20280;-77
2022/05/20 14:30:46;;;;;;;;;;;33.60;42.30;;;;;;5073831;28;19916;-77
2022/05/20 14:33:33;;;;;;;;;;;32.90;43.70;;;;;;5073820;28;20288;-77
2022/05/20 14:36:00;;;;;;;;;;;33.50;44.90;;;;;;5055457;28;19935;-77
2022/05/20 14:38:35;;;;;;;;;;;34.80;42.20;;;;;;5073752;28;20387;-76
2022/05/20 14:41:04;;;;;;;;;;;33.80;43.00;;;;;;5073860;28;19909;-78
2022/05/20 14:43:37;;;;;;;;;;;34.20;42.40;;;;;;5073614;28;19913;-79
2022/05/20 14:46:04;;;;;;;;;;;33.70;42.40;;;;;;5073680;28;19908;-77
2022/05/20 14:48:36;;;;;;;;;;;33.00;43.10;;;;;;5073697;28;19909;-79
2022/05/20 14:51:02;;;;;;;;;;;34.80;43.10;;;;;;5073593;28;20368;-78
2022/05/20 14:53:30;;;;;;;;;;;36.40;41.70;;;;;;5073640;28;19908;-77
2022/05/20 14:55:57;;;;;;;;;;;36.90;41.10;;;;;;5073587;28;19962;-79
2022/05/20 14:58:23;;;;;;;;;;;37.10;41.20;;;;;;5073583;28;19908;-79
2022/05/20 15:00:56;;;;;;;;;;;36.30;39.20;;;;;;5073743;28;19915;-77
2022/05/20 15:03:22;;;;;;;;;;;34.90;40.80;;;;;;5073647;28;19960;-78
2022/05/20 15:05:52;;;;;;;;;;;35.50;41.00;;;;;;5073562;28;19908;-77
2022/05/20 15:08:18;;;;;;;;;;;33.70;41.80;;;;;;5073446;28;20364;-78
2022/05/20 15:10:52;;;;;;;;;;;32.90;42.50;;;;;;5055427;28;19916;-76
2022/05/20 15:13:17;;;;;;;;;;;33.80;43.50;;;;;;5073610;28;19913;-76
2022/05/20 15:15:43;;;;;;;;;;;38.10;41.50;;;;;;5073590;28;19961;-77